Time;durP1;ratioP1;P1;durP2;ratioP2;P2;SDS_P1;SDS_P2;PMS_P1;PMS_P2;Temp;Humidity;BMP_temperature;BMP_pressure;BME280_temperature;BME280_humidity;BME280_pressure;Samples;Min_cycle;Max_cycle;Signal;HPM_P1;HPM_P2
2022/03/27 00:01:55;;;;;;;;;;;;;;;3.47;54.85;96207.84;5114495;28;1023;-50
2022/03/27 00:04:21;;;;;;;;;;;;;;;3.41;54.68;96200.28;5114295;28;964;-50
2022/03/27 00:06:47;;;;;;;;;;;;;;;3.12;55.57;96206.34;5113908;28;1196;-51
2022/03/27 00:09:13;;;;;;;;;;;;;;;2.92;55.85;96193.44;5114228;28;1033;-51
2022/03/27 00:11:39;;;;;;;;;;;;;;;2.82;56.67;96200.19;5114449;28;992;-50
2022/03/27 00:14:05;;;;;;;;;;;;;;;2.91;56.92;96203.16;5113099;27;1089;-50
2022/03/27 00:16:32;;;;;;;;;;;;;;;2.97;56.23;96196.66;5113912;28;1012;-50
2022/03/27 00:18:58;;;;;;;;;;;;;;;2.86;57.23;96196.44;5113428;28;1989;-50
2022/03/27 00:21:24;;;;;;;;;;;;;;;3.04;56.24;96195.38;5114114;28;968;-50
2022/03/27 00:23:52;;;;;;;;;;;;;;;2.96;56.08;96183.53;5113882;28;1015;-50
2022/03/27 00:26:19;;;;;;;;;;;;;;;2.96;56.45;96186.19;5113997;27;956;-50
2022/03/27 00:28:45;;;;;;;;;;;;;;;2.89;56.65;96194.47;5113819;28;1208;-50
2022/03/27 00:31:12;;;;;;;;;;;;;;;2.65;57.49;96196.72;5114153;28;1007;-50
2022/03/27 00:33:39;;;;;;;;;;;;;;;2.60;57.15;96192.63;5113764;28;1028;-50
2022/03/27 00:36:06;;;;;;;;;;;;;;;2.67;57.57;96188.72;5113505;27;1547;-50
2022/03/27 00:38:33;;;;;;;;;;;;;;;3.06;57.00;96190.00;5113666;28;1906;-51
2022/03/27 00:40:59;;;;;;;;;;;;;;;3.32;55.62;96189.31;5112671;28;1865;-51
2022/03/27 00:43:26;;;;;;;;;;;;;;;3.65;54.90;96184.72;5112661;28;953;-51
2022/03/27 00:45:53;;;;;;;;;;;;;;;3.40;55.08;96190.66;5113406;28;1068;-51
2022/03/27 00:48:20;;;;;;;;;;;;;;;3.19;55.84;96183.06;5113588;28;1100;-51
2022/03/27 00:50:47;;;;;;;;;;;;;;;2.97;56.00;96182.63;5113478;28;1193;-51
2022/03/27 00:53:13;;;;;;;;;;;;;;;2.73;57.49;96185.72;5113786;28;1083;-51
2022/03/27 00:55:39;;;;;;;;;;;;;;;2.88;56.74;96191.91;5112290;28;1051;-51
2022/03/27 00:58:06;;;;;;;;;;;;;;;2.68;57.06;96179.88;5113730;28;1917;-51
2022/03/27 01:00:38;;;;;;;;;;;;;;;2.53;57.33;96181.59;5112952;28;1316;-51
2022/03/27 01:03:04;;;;;;;;;;;;;;;2.54;57.24;96181.50;5112352;28;1086;-51
2022/03/27 01:05:31;;;;;;;;;;;;;;;2.52;57.88;96179.88;5113183;28;1200;-52
2022/03/27 01:07:57;;;;;;;;;;;;;;;2.74;57.00;96180.34;5113537;28;1063;-51
2022/03/27 01:10:25;;;;;;;;;;;;;;;2.86;56.94;96177.94;5113646;28;961;-51
2022/03/27 01:12:51;;;;;;;;;;;;;;;2.73;57.22;96180.44;5113521;28;983;-51
2022/03/27 01:15:31;;;;;;;;;;;;;;;2.72;57.39;96186.66;5113129;28;1020;-51
2022/03/27 01:17:57;;;;;;;;;;;;;;;2.77;57.40;96181.97;5113299;28;1992;-51
2022/03/27 01:20:29;;;;;;;;;;;;;;;3.15;55.91;96186.81;5113283;28;1079;-51
2022/03/27 01:22:55;;;;;;;;;;;;;;;3.19;56.38;96177.78;5112462;28;1601;-51
2022/03/27 01:25:22;;;;;;;;;;;;;;;2.93;56.17;96181.94;5113145;28;1851;-51
2022/03/27 01:27:48;;;;;;;;;;;;;;;2.62;56.58;96180.19;5113458;28;1027;-51
2022/03/27 01:30:14;;;;;;;;;;;;;;;2.18;58.04;96184.38;5113307;28;1032;-51
2022/03/27 01:32:40;;;;;;;;;;;;;;;2.22;58.30;96187.72;5117291;28;973;-51
2022/03/27 01:35:07;;;;;;;;;;;;;;;2.28;58.04;96195.31;5115916;28;1044;-51
2022/03/27 01:37:33;;;;;;;;;;;;;;;2.11;58.79;96191.81;5117331;28;1139;-51
2022/03/27 01:40:00;;;;;;;;;;;;;;;2.40;58.43;96185.84;5116894;28;1906;-51
2022/03/27 01:42:26;;;;;;;;;;;;;;;2.78;57.38;96191.59;5117132;28;1027;-51
2022/03/27 01:44:52;;;;;;;;;;;;;;;3.10;56.25;96191.53;5116847;28;1080;-51
2022/03/27 01:47:18;;;;;;;;;;;;;;;2.70;57.02;96185.91;5116962;28;1043;-51
2022/03/27 01:49:45;;;;;;;;;;;;;;;2.43;57.93;96181.25;5116901;28;1785;-51
2022/03/27 01:52:11;;;;;;;;;;;;;;;2.45;58.20;96189.94;5116996;27;1153;-51
2022/03/27 01:54:37;;;;;;;;;;;;;;;2.04;58.84;96184.31;5116852;28;1222;-51
2022/03/27 01:57:04;;;;;;;;;;;;;;;1.97;59.65;96186.41;5116818;28;1035;-51
2022/03/27 01:59:30;;;;;;;;;;;;;;;2.22;59.51;96182.44;5116941;28;1975;-51
2022/03/27 02:01:56;;;;;;;;;;;;;;;2.33;58.86;96186.19;5116461;28;960;-51
2022/03/27 02:04:22;;;;;;;;;;;;;;;2.50;58.36;96187.91;5117019;28;1023;-51
2022/03/27 02:06:48;;;;;;;;;;;;;;;2.44;58.09;96182.94;5116422;28;1145;-51
2022/03/27 02:09:14;;;;;;;;;;;;;;;2.45;58.54;96192.56;5116725;28;1079;-51
2022/03/27 02:11:40;;;;;;;;;;;;;;;2.51;58.41;96184.31;5116569;28;964;-51
2022/03/27 02:14:06;;;;;;;;;;;;;;;2.50;58.28;96187.91;5116292;28;1042;-51
2022/03/27 02:16:32;;;;;;;;;;;;;;;2.33;57.97;96190.59;5116003;28;1176;-51
2022/03/27 02:18:58;;;;;;;;;;;;;;;2.21;58.88;96188.66;5116367;28;1910;-51
2022/03/27 02:21:24;;;;;;;;;;;;;;;2.21;58.77;96194.78;5098455;28;992;-51
2022/03/27 02:23:51;;;;;;;;;;;;;;;2.24;58.50;96194.63;5115169;28;1999;-51
2022/03/27 02:26:17;;;;;;;;;;;;;;;2.13;58.23;96194.38;5116140;28;1254;-51
2022/03/27 02:28:43;;;;;;;;;;;;;;;1.89;59.39;96196.53;5116422;28;960;-51
2022/03/27 02:31:09;;;;;;;;;;;;;;;2.01;59.86;96193.25;5116122;28;1048;-51
2022/03/27 02:33:36;;;;;;;;;;;;;;;1.87;59.50;96190.50;5116145;28;1123;-51
2022/03/27 02:36:06;;;;;;;;;;;;;;;1.63;60.40;96195.28;5115697;28;1521;-51
2022/03/27 02:38:32;;;;;;;;;;;;;;;1.73;60.52;96201.78;5116136;28;1997;-51
2022/03/27 02:40:58;;;;;;;;;;;;;;;1.71;60.64;96201.03;5115978;28;1330;-51
2022/03/27 02:43:24;;;;;;;;;;;;;;;1.84;59.89;96198.56;5115586;28;1042;-51
2022/03/27 02:45:50;;;;;;;;;;;;;;;1.64;60.44;96208.38;5115437;28;1321;-51
2022/03/27 02:48:16;;;;;;;;;;;;;;;1.73;60.36;96214.97;5115908;28;1202;-51
2022/03/27 02:50:43;;;;;;;;;;;;;;;1.82;60.12;96217.13;5116064;28;1212;-51
2022/03/27 02:53:11;;;;;;;;;;;;;;;1.88;59.97;96223.88;5115891;28;1067;-51
2022/03/27 02:55:37;;;;;;;;;;;;;;;1.87;60.03;96220.34;5115682;27;960;-51
2022/03/27 02:58:03;;;;;;;;;;;;;;;1.69;60.37;96224.84;5115477;28;2000;-49
2022/03/27 03:00:29;;;;;;;;;;;;;;;1.51;60.54;96231.06;5115722;28;952;-51
2022/03/27 03:02:56;;;;;;;;;;;;;;;1.26;61.73;96224.41;5114527;28;983;-51
2022/03/27 03:05:22;;;;;;;;;;;;;;;1.32;61.50;96229.34;5115607;27;1095;-51
2022/03/27 03:07:49;;;;;;;;;;;;;;;1.39;61.81;96221.16;5115471;28;992;-51
2022/03/27 03:10:15;;;;;;;;;;;;;;;1.55;60.86;96228.16;5115739;27;964;-51
2022/03/27 03:12:41;;;;;;;;;;;;;;;1.33;61.29;96224.97;5114886;28;1130;-49
2022/03/27 03:15:07;;;;;;;;;;;;;;;1.39;61.13;96224.63;5115227;28;1107;-49
2022/03/27 03:17:34;;;;;;;;;;;;;;;1.46;60.82;96226.03;5115315;27;996;-49
2022/03/27 03:20:00;;;;;;;;;;;;;;;1.53;60.68;96227.41;5115167;28;1984;-49
2022/03/27 03:22:27;;;;;;;;;;;;;;;1.29;61.66;96226.91;5114812;28;1039;-49
2022/03/27 03:24:53;;;;;;;;;;;;;;;1.05;62.57;96231.63;5114062;28;1039;-49
2022/03/27 03:27:19;;;;;;;;;;;;;;;1.18;62.73;96231.84;5113610;28;1008;-49
2022/03/27 03:29:45;;;;;;;;;;;;;;;1.16;62.96;96239.81;5114993;28;1107;-49
2022/03/27 03:32:11;;;;;;;;;;;;;;;1.38;62.33;96235.25;5114993;28;961;-49
2022/03/27 03:34:37;;;;;;;;;;;;;;;1.60;61.60;96238.50;5115397;28;960;-49
2022/03/27 03:37:03;;;;;;;;;;;;;;;1.39;61.02;96244.88;5114824;28;1055;-49
2022/03/27 03:39:29;;;;;;;;;;;;;;;1.06;62.45;96235.09;5114915;28;1977;-49
2022/03/27 03:41:55;;;;;;;;;;;;;;;1.02;62.19;96239.66;5114302;28;1095;-49
2022/03/27 03:44:21;;;;;;;;;;;;;;;1.06;62.36;96246.47;5114737;28;1044;-49
2022/03/27 03:46:48;;;;;;;;;;;;;;;1.21;62.21;96244.00;5114366;28;1103;-49
2022/03/27 03:49:14;;;;;;;;;;;;;;;1.23;62.28;96242.16;5114626;28;1075;-49
2022/03/27 03:51:40;;;;;;;;;;;;;;;1.15;62.28;96243.38;5114642;28;1244;-49
2022/03/27 03:54:09;;;;;;;;;;;;;;;1.25;62.07;96245.56;5113712;28;1024;-49
2022/03/27 03:56:38;;;;;;;;;;;;;;;1.17;61.73;96248.56;5114534;28;1038;-49
2022/03/27 03:59:04;;;;;;;;;;;;;;;1.11;62.57;96247.09;5114171;28;1986;-49
2022/03/27 04:01:30;;;;;;;;;;;;;;;1.29;62.40;96250.63;5114339;28;1287;-49
2022/03/27 04:03:56;;;;;;;;;;;;;;;1.52;62.05;96252.06;5114117;28;1086;-49
2022/03/27 04:06:22;;;;;;;;;;;;;;;1.23;61.86;96253.53;5114850;27;991;-49
2022/03/27 04:08:48;;;;;;;;;;;;;;;1.26;62.41;96256.03;5114054;28;1099;-49
2022/03/27 04:11:17;;;;;;;;;;;;;;;1.09;62.11;96251.59;5114251;28;1020;-49
2022/03/27 04:13:46;;;;;;;;;;;;;;;0.95;62.72;96265.47;5113793;28;970;-49
2022/03/27 04:16:13;;;;;;;;;;;;;;;1.18;62.58;96250.31;5114367;28;1051;-49
2022/03/27 04:18:39;;;;;;;;;;;;;;;1.10;62.24;96255.06;5113886;28;1897;-49
2022/03/27 04:21:06;;;;;;;;;;;;;;;1.11;62.60;96264.69;5114095;28;1115;-49
2022/03/27 04:23:32;;;;;;;;;;;;;;;1.19;62.79;96266.94;5114168;28;1015;-49
2022/03/27 04:25:58;;;;;;;;;;;;;;;1.09;62.26;96269.19;5114123;28;1040;-49
2022/03/27 04:28:24;;;;;;;;;;;;;;;1.15;63.01;96259.19;5114561;28;948;-48
2022/03/27 04:30:51;;;;;;;;;;;;;;;1.11;62.17;96269.97;5147009;27;1465;-49
2022/03/27 04:33:17;;;;;;;;;;;;;;;1.05;62.32;96271.13;5114045;28;1008;-49
2022/03/27 04:35:43;;;;;;;;;;;;;;;0.78;62.93;96266.28;5114368;28;1018;-50
2022/03/27 04:38:10;;;;;;;;;;;;;;;0.54;64.36;96273.56;5113895;28;1987;-50
2022/03/27 04:40:36;;;;;;;;;;;;;;;0.76;64.41;96280.44;5146941;27;1102;-49
2022/03/27 04:43:02;;;;;;;;;;;;;;;1.01;62.96;96285.38;5112435;28;1632;-49
2022/03/27 04:45:28;;;;;;;;;;;;;;;1.24;63.43;96291.28;5113584;28;1036;-49
2022/03/27 04:47:55;;;;;;;;;;;;;;;1.34;62.69;96289.91;5113425;28;1215;-50
2022/03/27 04:50:21;;;;;;;;;;;;;;;1.23;62.21;96290.41;5113779;28;972;-49
2022/03/27 04:52:47;;;;;;;;;;;;;;;1.19;62.56;96299.41;5113398;28;1153;-49
2022/03/27 04:55:13;;;;;;;;;;;;;;;1.24;62.69;96300.03;5113584;28;979;-49
2022/03/27 04:57:39;;;;;;;;;;;;;;;1.23;62.69;96298.31;5113433;28;1029;-50
2022/03/27 05:00:10;;;;;;;;;;;;;;;1.41;63.03;96299.19;5113419;28;1995;-50
2022/03/27 05:02:40;;;;;;;;;;;;;;;1.71;62.07;96304.69;5113684;28;961;-50
2022/03/27 05:05:07;;;;;;;;;;;;;;;1.95;61.54;96307.00;5114778;28;1103;-50
2022/03/27 05:07:35;;;;;;;;;;;;;;;2.30;60.75;96309.56;5117826;28;1047;-50
2022/03/27 05:10:01;;;;;;;;;;;;;;;2.48;60.46;96307.69;5117442;28;1015;-50
2022/03/27 05:12:27;;;;;;;;;;;;;;;2.62;60.23;96312.22;5117726;28;1106;-49
2022/03/27 05:14:53;;;;;;;;;;;;;;;2.78;60.22;96322.81;5117456;28;956;-49
2022/03/27 05:17:19;;;;;;;;;;;;;;;3.20;59.69;96311.63;5117520;28;1035;-49
2022/03/27 05:19:45;;;;;;;;;;;;;;;3.49;59.03;96303.78;5117172;28;1910;-49
2022/03/27 05:22:11;;;;;;;;;;;;;;;3.68;58.60;96317.66;5117456;28;1076;-49
2022/03/27 05:24:37;;;;;;;;;;;;;;;3.60;57.60;96311.94;5117055;28;924;-49
2022/03/27 05:27:03;;;;;;;;;;;;;;;3.64;58.26;96312.63;5117435;28;1011;-49
2022/03/27 05:29:29;;;;;;;;;;;;;;;4.01;57.58;96315.72;5117165;28;1110;-49
2022/03/27 05:31:57;;;;;;;;;;;;;;;4.15;57.38;96317.53;5117142;28;1827;-49
2022/03/27 05:34:23;;;;;;;;;;;;;;;4.21;57.33;96314.50;5117131;28;1027;-49
2022/03/27 05:36:49;;;;;;;;;;;;;;;4.47;56.82;96315.56;5117187;28;1019;-49
2022/03/27 05:39:15;;;;;;;;;;;;;;;4.77;56.15;96311.94;5116836;28;1905;-49
2022/03/27 05:41:41;;;;;;;;;;;;;;;5.01;56.47;96314.84;5117391;28;972;-49
2022/03/27 05:44:07;;;;;;;;;;;;;;;5.09;56.29;96318.69;5116838;28;1000;-49
2022/03/27 05:46:33;;;;;;;;;;;;;;;5.25;55.06;96317.69;5117355;28;976;-49
2022/03/27 05:48:59;;;;;;;;;;;;;;;5.50;54.58;96326.69;5116677;28;1076;-49
2022/03/27 05:51:25;;;;;;;;;;;;;;;5.72;54.04;96320.81;5116871;28;1161;-49
2022/03/27 05:53:51;;;;;;;;;;;;;;;5.86;54.04;96326.03;5116509;28;1216;-49
2022/03/27 05:56:17;;;;;;;;;;;;;;;6.10;53.01;96325.38;5116986;27;1094;-49
2022/03/27 05:58:43;;;;;;;;;;;;;;;6.43;52.29;96331.03;5116846;27;1933;-49
2022/03/27 06:01:09;;;;;;;;;;;;;;;6.60;51.17;96331.63;5116589;28;1091;-49
2022/03/27 06:03:35;;;;;;;;;;;;;;;6.71;51.35;96325.56;5116768;28;1035;-50
2022/03/27 06:06:02;;;;;;;;;;;;;;;6.79;50.91;96325.84;5116398;28;961;-50
2022/03/27 06:08:28;;;;;;;;;;;;;;;7.18;51.30;96327.47;5116605;28;987;-50
2022/03/27 06:10:54;;;;;;;;;;;;;;;7.56;49.60;96329.13;5116185;28;1029;-50
2022/03/27 06:13:20;;;;;;;;;;;;;;;7.99;49.15;96336.56;5116541;28;1051;-50
2022/03/27 06:15:47;;;;;;;;;;;;;;;8.32;47.87;96332.28;5116221;28;988;-51
2022/03/27 06:18:13;;;;;;;;;;;;;;;8.65;46.66;96329.81;5115798;28;1914;-50
2022/03/27 06:20:40;;;;;;;;;;;;;;;9.10;45.89;96335.97;5116226;28;964;-50
2022/03/27 06:23:06;;;;;;;;;;;;;;;9.66;45.27;96334.19;5116203;27;1055;-50
2022/03/27 06:25:35;;;;;;;;;;;;;;;10.33;43.06;96331.22;5115981;28;1028;-52
2022/03/27 06:28:01;;;;;;;;;;;;;;;12.01;40.11;96331.63;5116151;28;1058;-50
2022/03/27 06:30:28;;;;;;;;;;;;;;;13.35;36.47;96333.31;5116246;28;1035;-50
2022/03/27 06:32:55;;;;;;;;;;;;;;;13.36;36.15;96336.88;5116136;28;999;-50
2022/03/27 06:35:22;;;;;;;;;;;;;;;13.28;36.24;96330.34;5115957;28;1173;-51
2022/03/27 06:37:48;;;;;;;;;;;;;;;13.84;36.14;96338.38;5115749;28;992;-50
2022/03/27 06:40:15;;;;;;;;;;;;;;;14.64;34.27;96344.69;5115903;28;1984;-51
2022/03/27 06:42:42;;;;;;;;;;;;;;;15.62;32.81;96336.25;5115911;28;1031;-51
2022/03/27 06:45:10;;;;;;;;;;;;;;;17.45;29.67;96342.31;5115478;27;1047;-52
2022/03/27 06:47:36;;;;;;;;;;;;;;;18.03;29.01;96339.38;5115789;27;1222;-52
2022/03/27 06:50:03;;;;;;;;;;;;;;;18.32;29.03;96339.50;5115581;28;964;-51
2022/03/27 06:52:29;;;;;;;;;;;;;;;19.65;26.79;96334.50;5115543;28;1157;-52
2022/03/27 06:54:55;;;;;;;;;;;;;;;21.29;24.50;96336.56;5115534;28;957;-51
2022/03/27 06:57:21;;;;;;;;;;;;;;;22.54;23.53;96340.06;5115867;28;1044;-52
2022/03/27 07:05:17;;;;;;;;;;;;;;;25.29;19.98;96352.56;5115294;28;1032;-52
2022/03/27 07:07:43;;;;;;;;;;;;;;;25.79;19.41;96357.09;5115792;28;1059;-52
2022/03/27 07:10:10;;;;;;;;;;;;;;;25.92;19.81;96356.16;5115422;28;1043;-52
2022/03/27 07:12:36;;;;;;;;;;;;;;;27.14;18.52;96361.41;5115249;27;968;-52
2022/03/27 07:15:02;;;;;;;;;;;;;;;27.00;18.56;96354.47;5115022;28;972;-51
2022/03/27 07:17:28;;;;;;;;;;;;;;;26.63;18.71;96355.44;5115260;28;1048;-51
2022/03/27 07:19:54;;;;;;;;;;;;;;;27.20;18.10;96351.38;5115380;28;1910;-52
2022/03/27 07:22:20;;;;;;;;;;;;;;;28.30;18.00;96352.50;5115067;28;972;-51
2022/03/27 07:24:47;;;;;;;;;;;;;;;29.04;17.26;96350.88;5115193;28;1163;-51
2022/03/27 07:27:13;;;;;;;;;;;;;;;28.63;17.18;96345.47;5114919;28;1024;-52
2022/03/27 07:29:39;;;;;;;;;;;;;;;28.46;17.03;96337.16;5113928;28;1042;-52
2022/03/27 07:32:05;;;;;;;;;;;;;;;28.11;17.28;96346.34;5114658;28;963;-52
2022/03/27 07:34:32;;;;;;;;;;;;;;;27.92;17.15;96350.34;5114927;28;2000;-51
2022/03/27 07:36:58;;;;;;;;;;;;;;;28.45;17.20;96345.66;5114756;28;1059;-51
2022/03/27 07:39:24;;;;;;;;;;;;;;;29.31;16.35;96343.66;5114916;28;1898;-52
2022/03/27 07:41:50;;;;;;;;;;;;;;;30.08;15.83;96339.25;5114394;28;983;-51
2022/03/27 07:44:16;;;;;;;;;;;;;;;30.63;15.73;96333.84;5114739;28;987;-52
2022/03/27 07:46:42;;;;;;;;;;;;;;;31.39;14.94;96336.47;5114448;28;937;-52
2022/03/27 07:49:08;;;;;;;;;;;;;;;30.36;15.18;96329.97;5113180;28;1088;-52
2022/03/27 07:51:34;;;;;;;;;;;;;;;30.73;15.54;96333.94;5114454;28;1165;-51
2022/03/27 07:54:01;;;;;;;;;;;;;;;31.51;15.36;96337.16;5114569;28;1012;-51
2022/03/27 07:56:27;;;;;;;;;;;;;;;31.18;14.89;96340.19;5114434;28;1046;-51
2022/03/27 07:58:53;;;;;;;;;;;;;;;31.05;15.68;96336.75;5114266;28;1906;-51
2022/03/27 08:01:19;;;;;;;;;;;;;;;30.25;15.93;96332.84;5114115;28;1046;-51
2022/03/27 08:03:45;;;;;;;;;;;;;;;29.31;16.62;96329.03;5113074;28;1032;-51
2022/03/27 08:06:11;;;;;;;;;;;;;;;28.02;17.90;96332.16;5114402;28;1012;-51
2022/03/27 08:08:38;;;;;;;;;;;;;;;25.26;20.26;96328.38;5113019;28;1067;-51
2022/03/27 08:11:04;;;;;;;;;;;;;;;23.36;22.12;96316.13;5114113;28;1052;-50
2022/03/27 08:13:30;;;;;;;;;;;;;;;22.58;23.15;96314.06;5114022;28;961;-50
2022/03/27 08:15:55;;;;;;;;;;;;;;;22.24;23.59;96313.13;5113858;28;1875;-50
2022/03/27 08:18:21;;;;;;;;;;;;;;;22.36;24.23;96310.66;5114249;28;1989;-50
2022/03/27 08:20:47;;;;;;;;;;;;;;;21.65;24.24;96309.16;5114160;28;971;-50
2022/03/27 08:23:13;;;;;;;;;;;;;;;21.37;25.06;96299.16;5114111;28;964;-50
2022/03/27 08:28:24;;;;;;;;;;;;;;;21.86;25.25;96300.03;5113904;28;1983;-50
2022/03/27 08:30:50;;;;;;;;;;;;;;;22.09;24.80;96304.28;5113807;28;1016;-49
2022/03/27 08:33:17;;;;;;;;;;;;;;;21.87;23.94;96288.09;5113953;28;968;-50
2022/03/27 08:35:43;;;;;;;;;;;;;;;22.38;24.59;96289.50;5112797;28;1036;-49
2022/03/27 08:38:10;;;;;;;;;;;;;;;22.29;23.99;96299.78;5113786;28;952;-50
2022/03/27 08:40:39;;;;;;;;;;;;;;;22.16;23.67;96284.19;5112317;28;973;-50
2022/03/27 08:43:10;;;;;;;;;;;;;;;22.65;24.26;96293.09;5113550;28;1028;-49
2022/03/27 08:45:36;;;;;;;;;;;;;;;22.46;23.53;96281.13;5113736;28;960;-49
2022/03/27 08:48:02;;;;;;;;;;;;;;;22.23;24.02;96276.88;5113391;28;1182;-50
2022/03/27 08:50:31;;;;;;;;;;;;;;;22.61;23.92;96270.88;5113849;28;1182;-49
2022/03/27 08:52:59;;;;;;;;;;;;;;;22.52;24.10;96274.84;5093203;28;999;-50
2022/03/27 08:55:25;;;;;;;;;;;;;;;22.54;23.92;96274.66;5093278;28;1059;-50
2022/03/27 08:57:51;;;;;;;;;;;;;;;22.03;22.51;96268.66;5092747;28;1036;-50
2022/03/27 09:00:31;;;;;;;;;;;;;;;21.70;23.57;96262.28;5093355;28;1905;-50
2022/03/27 09:02:58;;;;;;;;;;;;;;;21.59;23.90;96252.84;5093195;28;1031;-50
2022/03/27 09:05:24;;;;;;;;;;;;;;;21.47;25.27;96247.09;5093284;28;1060;-50
2022/03/27 09:07:52;;;;;;;;;;;;;;;21.30;24.97;96241.13;5092945;28;1032;-50
2022/03/27 09:10:18;;;;;;;;;;;;;;;21.24;25.59;96245.50;5093064;28;1072;-50
2022/03/27 09:12:45;;;;;;;;;;;;;;;21.49;23.70;96236.03;5092582;28;1008;-50
2022/03/27 09:15:12;;;;;;;;;;;;;;;21.16;24.04;96236.69;5093126;28;1098;-50
2022/03/27 09:17:54;;;;;;;;;;;;;;;21.60;24.16;96230.84;5092997;28;1000;-50
2022/03/27 09:20:35;;;;;;;;;;;;;;;21.63;23.35;96227.72;5093114;28;1909;-50
2022/03/27 09:23:12;;;;;;;;;;;;;;;21.50;23.26;96218.69;5092765;28;1021;-50
2022/03/27 09:25:45;;;;;;;;;;;;;;;21.52;22.10;96208.44;5092094;28;1036;-50
2022/03/27 09:28:11;;;;;;;;;;;;;;;21.68;22.73;96209.94;5092913;28;947;-50
2022/03/27 09:30:37;;;;;;;;;;;;;;;21.75;22.64;96211.63;5093127;28;1036;-50
2022/03/27 09:33:03;;;;;;;;;;;;;;;21.76;22.44;96207.00;5092731;28;1035;-50
2022/03/27 09:35:29;;;;;;;;;;;;;;;22.01;21.49;96213.56;5092815;28;1040;-50
2022/03/27 09:37:55;;;;;;;;;;;;;;;22.29;21.83;96211.72;5092889;28;1043;-50
2022/03/27 09:40:21;;;;;;;;;;;;;;;22.19;21.32;96203.94;5092759;28;1979;-49
2022/03/27 09:43:07;;;;;;;;;;;;;;;22.02;21.29;96198.91;5092467;28;1123;-50
2022/03/27 09:45:33;;;;;;;;;;;;;;;22.10;22.22;96202.47;5092933;28;968;-50
2022/03/27 09:48:07;;;;;;;;;;;;;;;22.16;21.98;96196.22;5092436;28;1966;-50
2022/03/27 09:50:38;;;;;;;;;;;;;;;22.11;21.15;96194.09;5092005;28;1204;-50
2022/03/27 09:53:16;;;;;;;;;;;;;;;22.14;20.76;96199.13;5115955;28;1024;-50
2022/03/27 09:55:42;;;;;;;;;;;;;;;22.11;21.21;96193.25;5117233;28;1048;-50
2022/03/27 09:58:09;;;;;;;;;;;;;;;22.30;21.69;96199.81;5116647;28;1027;-50
2022/03/27 10:03:58;;;;;;;;;;;;;;;22.30;20.75;96192.47;5116496;28;1025;-49
2022/03/27 10:06:33;;;;;;;;;;;;;;;22.00;20.62;96186.53;5116881;28;1074;-50
2022/03/27 10:09:03;;;;;;;;;;;;;;;21.91;21.51;96177.75;5116352;28;971;-50
2022/03/27 10:11:29;;;;;;;;;;;;;;;22.31;21.12;96182.38;5116727;28;1200;-50
2022/03/27 10:13:55;;;;;;;;;;;;;;;22.55;21.14;96172.75;5116294;28;1031;-50
2022/03/27 10:16:23;;;;;;;;;;;;;;;22.65;20.63;96175.91;5116617;28;1039;-51
2022/03/27 10:18:53;;;;;;;;;;;;;;;22.59;21.58;96168.53;5116239;28;1993;-50
2022/03/27 10:21:20;;;;;;;;;;;;;;;22.68;21.30;96171.91;5116437;28;952;-50
2022/03/27 10:23:48;;;;;;;;;;;;;;;22.75;19.97;96157.19;5116024;28;1251;-51
2022/03/27 10:26:15;;;;;;;;;;;;;;;22.66;20.08;96154.91;5116487;28;979;-50
2022/03/27 10:28:42;;;;;;;;;;;;;;;22.75;20.68;96156.38;5116255;28;944;-51
2022/03/27 10:31:08;;;;;;;;;;;;;;;22.83;20.25;96153.41;5116255;28;1196;-51
2022/03/27 10:33:35;;;;;;;;;;;;;;;22.55;19.39;96145.50;5115960;28;1048;-50
2022/03/27 10:36:05;;;;;;;;;;;;;;;22.51;19.01;96141.53;5115980;28;1187;-50
2022/03/27 10:38:31;;;;;;;;;;;;;;;22.58;19.76;96139.63;5115764;28;1913;-50
2022/03/27 10:41:00;;;;;;;;;;;;;;;22.61;19.98;96128.28;5115770;28;1023;-50
2022/03/27 10:43:31;;;;;;;;;;;;;;;22.47;20.07;96137.53;5115666;28;1040;-50
2022/03/27 10:46:12;;;;;;;;;;;;;;;22.19;20.01;96124.97;5115940;28;983;-50
2022/03/27 10:48:42;;;;;;;;;;;;;;;22.19;19.83;96108.63;5115394;28;1091;-50
2022/03/27 10:51:09;;;;;;;;;;;;;;;22.24;20.11;96122.44;5115896;28;1878;-49
2022/03/27 10:53:36;;;;;;;;;;;;;;;22.31;19.73;96111.56;5115774;28;1066;-49
2022/03/27 10:56:03;;;;;;;;;;;;;;;22.12;19.45;96113.22;5115663;28;1056;-49
2022/03/27 10:58:37;;;;;;;;;;;;;;;22.18;19.72;96104.22;5115470;28;1913;-49
2022/03/27 11:01:05;;;;;;;;;;;;;;;22.22;19.37;96109.03;5115535;28;1975;-49
2022/03/27 11:03:46;;;;;;;;;;;;;;;22.14;18.71;96106.53;5115160;28;1075;-48
2022/03/27 11:06:22;;;;;;;;;;;;;;;21.97;18.75;96099.84;5115498;28;1099;-49
2022/03/27 11:08:49;;;;;;;;;;;;;;;22.02;19.83;96097.31;5115034;28;1087;-48
2022/03/27 11:11:33;;;;;;;;;;;;;;;22.08;19.89;96095.63;5114130;28;976;-49
2022/03/27 11:14:00;;;;;;;;;;;;;;;21.91;19.05;96096.06;5115041;28;984;-49
2022/03/27 11:16:26;;;;;;;;;;;;;;;21.84;19.16;96084.34;5114369;28;1036;-49
2022/03/27 11:18:52;;;;;;;;;;;;;;;21.77;19.33;96086.22;5115081;28;1901;-49
2022/03/27 11:21:27;;;;;;;;;;;;;;;21.85;20.10;96077.84;5115249;28;1015;-49
2022/03/27 11:23:55;;;;;;;;;;;;;;;21.76;19.35;96073.63;5114968;28;964;-49
2022/03/27 11:26:20;;;;;;;;;;;;;;;21.76;19.80;96073.63;5114935;28;996;-49
2022/03/27 11:28:48;;;;;;;;;;;;;;;21.67;19.84;96067.56;5114740;28;1285;-49
2022/03/27 11:31:16;;;;;;;;;;;;;;;21.60;19.73;96062.13;5113989;28;1044;-49
2022/03/27 11:33:44;;;;;;;;;;;;;;;21.59;19.52;96065.91;5114725;28;936;-49
2022/03/27 11:36:14;;;;;;;;;;;;;;;21.70;19.80;96060.88;5114963;28;1059;-50
2022/03/27 11:38:52;;;;;;;;;;;;;;;21.72;19.84;96058.78;5114840;28;1910;-48
2022/03/27 11:41:25;;;;;;;;;;;;;;;21.72;19.58;96053.34;5114538;28;1099;-48
2022/03/27 11:43:55;;;;;;;;;;;;;;;21.75;19.79;96053.75;5114408;28;1019;-48
2022/03/27 11:46:23;;;;;;;;;;;;;;;21.71;19.79;96057.13;5114785;28;972;-48
2022/03/27 11:49:01;;;;;;;;;;;;;;;21.74;20.09;96048.50;5113084;28;1103;-48
2022/03/27 11:51:28;;;;;;;;;;;;;;;21.64;19.69;96048.94;5113211;28;1157;-48
2022/03/27 11:53:55;;;;;;;;;;;;;;;21.49;19.91;96045.56;5114504;28;1101;-48
2022/03/27 11:56:24;;;;;;;;;;;;;;;21.52;20.66;96037.00;5114428;28;1047;-52
2022/03/27 11:59:06;;;;;;;;;;;;;;;21.48;19.04;96028.44;5114393;28;1990;-51
2022/03/27 12:01:32;;;;;;;;;;;;;;;21.45;19.42;96029.66;5114497;28;980;-50
2022/03/27 12:03:59;;;;;;;;;;;;;;;21.36;19.99;96033.63;5114057;28;1037;-51
2022/03/27 12:06:26;;;;;;;;;;;;;;;21.28;19.67;96027.53;5113260;28;1051;-51
2022/03/27 12:08:52;;;;;;;;;;;;;;;21.17;19.98;96021.66;5113230;28;1205;-52
2022/03/27 12:11:23;;;;;;;;;;;;;;;20.97;19.96;96021.59;5113966;28;1095;-51
2022/03/27 12:13:49;;;;;;;;;;;;;;;21.02;20.00;96026.44;5114193;28;1007;-50
2022/03/27 12:16:20;;;;;;;;;;;;;;;21.16;19.88;96024.59;5113639;28;1027;-50
2022/03/27 12:18:47;;;;;;;;;;;;;;;21.15;19.72;96012.88;5113938;28;1905;-51
2022/03/27 12:21:14;;;;;;;;;;;;;;;21.15;19.80;96007.44;5113999;28;1944;-50
2022/03/27 12:23:41;;;;;;;;;;;;;;;21.15;20.09;96014.72;5113699;28;1016;-51
2022/03/27 12:32:03;;;;;;;;;;;;;;;21.24;19.22;95997.19;5114097;28;960;-49
2022/03/27 12:34:30;;;;;;;;;;;;;;;21.15;19.91;96001.13;5113893;28;1045;-50
2022/03/27 12:37:10;;;;;;;;;;;;;;;21.19;20.06;95999.69;5113988;28;979;-49
2022/03/27 12:39:48;;;;;;;;;;;;;;;21.21;20.19;96000.34;5113708;28;1906;-49
2022/03/27 12:42:35;;;;;;;;;;;;;;;21.17;18.97;96005.34;5113875;28;983;-49
2022/03/27 12:45:07;;;;;;;;;;;;;;;20.95;19.06;95992.97;5113721;28;1031;-49
2022/03/27 12:47:34;;;;;;;;;;;;;;;20.90;19.68;95995.44;5113765;28;960;-49
2022/03/27 12:50:00;;;;;;;;;;;;;;;20.95;19.94;95999.22;5113557;28;1034;-48
2022/03/27 12:52:26;;;;;;;;;;;;;;;20.98;19.62;95993.38;5113571;28;1860;-49
2022/03/27 12:54:56;;;;;;;;;;;;;;;20.90;19.48;95987.28;5113623;28;1015;-49
2022/03/27 12:57:22;;;;;;;;;;;;;;;20.88;19.94;95990.22;5113687;28;1035;-50
2022/03/27 12:59:48;;;;;;;;;;;;;;;20.91;19.73;95981.66;5113419;28;1909;-50
2022/03/27 13:02:24;;;;;;;;;;;;;;;20.91;19.27;95981.66;5112433;28;1047;-50
2022/03/27 13:05:01;;;;;;;;;;;;;;;20.77;19.58;95978.06;5113382;28;1059;-49
2022/03/27 13:07:46;;;;;;;;;;;;;;;20.82;19.89;95977.44;5113522;28;1028;-50
2022/03/27 13:10:12;;;;;;;;;;;;;;;20.93;19.42;95981.47;5113445;28;995;-50
2022/03/27 13:12:38;;;;;;;;;;;;;;;20.92;19.65;95986.03;5113291;28;1043;-51
2022/03/27 13:15:04;;;;;;;;;;;;;;;20.79;19.82;95973.28;5113197;28;1024;-49
2022/03/27 13:17:30;;;;;;;;;;;;;;;20.82;20.04;95972.00;5113759;28;1011;-49
2022/03/27 13:19:56;;;;;;;;;;;;;;;20.80;19.75;95983.09;5113324;28;1925;-48
2022/03/27 13:22:22;;;;;;;;;;;;;;;20.71;19.38;95978.03;5113476;28;985;-49
2022/03/27 13:24:51;;;;;;;;;;;;;;;20.71;20.12;95973.44;5113344;28;1054;-48